Wetterdaten: Woche 21.08.06 - 27.08.06 (KW34)
Datum Zeit Temperatur Luftfeuchte Luftdruck Niederschlag Wind Richtung Sonnenschein UV-Strahlung Solar Taupunkt Windchill Windben
21.08.2006 00:00 14.8 C 89 % 1023.0 hPa 0.0 l/m 3.3 km/h (1 Bft) O-SO 0.00 h 0.0 UV-I 0 W/m 12.9 C 14.8 C 4.7 km/h (1 Bft)
21.08.2006 01:00 13.9 C 91 % 1022.8 hPa 0.0 l/m 4.2 km/h (1 Bft) O-SO 0.00 h 0.0 UV-I 0 W/m 12.5 C 13.9 C 5.7 km/h (1 Bft)
21.08.2006 02:00 13.4 C 94 % 1022.8 hPa 0.0 l/m 4.2 km/h (1 Bft) O-SO 0.00 h 0.0 UV-I 0 W/m 12.4 C 13.4 C 5.8 km/h (2 Bft)
21.08.2006 03:00 13.1 C 95 % 1022.7 hPa 0.0 l/m 3.8 km/h (1 Bft) O-SO 0.00 h 0.0 UV-I 0 W/m 12.3 C 13.1 C 5.0 km/h (1 Bft)
21.08.2006 04:00 12.4 C 96 % 1022.6 hPa 0.0 l/m 2.1 km/h (1 Bft) O-SO 0.00 h 0.0 UV-I 0 W/m 11.8 C 12.4 C 3.3 km/h (1 Bft)
21.08.2006 05:00 12.3 C 97 % 1022.4 hPa 0.0 l/m 2.9 km/h (1 Bft) O-SO 0.00 h 0.0 UV-I 0 W/m 11.8 C 12.3 C 4.6 km/h (1 Bft)
21.08.2006 06:00 12.8 C 96 % 1022.5 hPa 0.0 l/m 3.1 km/h (1 Bft) O-SO 0.02 h 0.0 UV-I 13 W/m 12.2 C 12.8 C 4.6 km/h (1 Bft)
21.08.2006 07:00 13.3 C 96 % 1022.6 hPa 0.0 l/m 0.1 km/h (0 Bft) O-SO 0.00 h 0.0 UV-I 41 W/m 12.7 C 13.3 C 0.6 km/h (0 Bft)
21.08.2006 08:00 14.1 C 93 % 1022.9 hPa 0.0 l/m 1.0 km/h (0 Bft) S-SO 0.03 h 0.7 UV-I 106 W/m 13.0 C 14.1 C 2.9 km/h (1 Bft)
21.08.2006 09:00 16.2 C 85 % 1022.9 hPa 0.0 l/m 3.6 km/h (1 Bft) W 0.40 h 1.7 UV-I 305 W/m 13.7 C 16.2 C 7.3 km/h (2 Bft)
21.08.2006 10:00 17.9 C 76 % 1022.6 hPa 0.0 l/m 6.0 km/h (2 Bft) W 0.47 h 2.7 UV-I 353 W/m 13.6 C 17.9 C 9.7 km/h (2 Bft)
21.08.2006 11:00 17.2 C 87 % 1022.7 hPa 0.4 l/m 3.3 km/h (1 Bft) W-NW 0.42 h 3.7 UV-I 454 W/m 15.0 C 17.2 C 5.7 km/h (1 Bft)
21.08.2006 12:00 19.6 C 73 % 1022.3 hPa 0.0 l/m 7.3 km/h (2 Bft) W-NW 0.65 h 5.4 UV-I 653 W/m 14.7 C 19.6 C 11.5 km/h (2 Bft)
21.08.2006 13:00 19.6 C 70 % 1021.9 hPa 0.0 l/m 8.9 km/h (2 Bft) W-NW 0.43 h 4.7 UV-I 426 W/m 13.9 C 19.6 C 13.9 km/h (3 Bft)
21.08.2006 14:00 20.6 C 65 % 1021.7 hPa 0.0 l/m 8.2 km/h (2 Bft) W 0.37 h 4.8 UV-I 477 W/m 13.8 C 20.6 C 12.6 km/h (3 Bft)
21.08.2006 15:00 21.1 C 64 % 1021.1 hPa 0.0 l/m 7.8 km/h (2 Bft) W 0.15 h 4.1 UV-I 367 W/m 13.9 C 21.1 C 13.2 km/h (3 Bft)
21.08.2006 16:00 22.2 C 61 % 1020.6 hPa 0.0 l/m 7.1 km/h (2 Bft) W-NW 0.73 h 3.2 UV-I 531 W/m 14.2 C 22.2 C 11.8 km/h (2 Bft)
21.08.2006 17:00 22.2 C 59 % 1020.3 hPa 0.0 l/m 9.7 km/h (2 Bft) W-NW 0.72 h 1.9 UV-I 373 W/m 13.7 C 22.2 C 15.1 km/h (3 Bft)
21.08.2006 18:00 21.3 C 61 % 1019.8 hPa 0.0 l/m 10.7 km/h (2 Bft) W-NW 0.70 h 1.0 UV-I 253 W/m 13.6 C 21.3 C 15.6 km/h (3 Bft)
21.08.2006 19:00 19.9 C 67 % 1019.4 hPa 0.0 l/m 8.6 km/h (2 Bft) W-NW 0.17 h 0.5 UV-I 66 W/m 13.6 C 19.9 C 13.2 km/h (3 Bft)
21.08.2006 20:00 18.9 C 69 % 1019.4 hPa 0.0 l/m 12.6 km/h (3 Bft) W-NW 0.00 h 0.0 UV-I 12 W/m 13.1 C 18.9 C 19.0 km/h (3 Bft)
21.08.2006 21:00 18.1 C 66 % 1019.8 hPa 0.0 l/m 19.2 km/h (3 Bft) W-NW 0.00 h 0.0 UV-I 0 W/m 11.7 C 18.1 C 27.6 km/h (4 Bft)
21.08.2006 22:00 17.4 C 67 % 1020.1 hPa 0.0 l/m 10.7 km/h (2 Bft) W-NW 0.00 h 0.0 UV-I 0 W/m 11.2 C 17.4 C 16.4 km/h (3 Bft)
21.08.2006 23:00 16.7 C 69 % 1019.9 hPa 0.0 l/m 6.7 km/h (2 Bft) W-NW 0.00 h 0.0 UV-I 0 W/m 11.0 C 16.7 C 10.4 km/h (2 Bft)
22.08.2006 00:00 15.5 C 75 % 1019.6 hPa 0.0 l/m 1.7 km/h (1 Bft) SO 0.00 h 0.0 UV-I 0 W/m 11.0 C 15.5 C 3.1 km/h (1 Bft)
22.08.2006 01:00 14.8 C 80 % 1019.2 hPa 0.0 l/m 2.0 km/h (1 Bft) O-SO 0.00 h 0.0 UV-I 0 W/m 11.3 C 14.8 C 3.2 km/h (1 Bft)
22.08.2006 02:00 14.9 C 80 % 1018.9 hPa 0.0 l/m 1.9 km/h (1 Bft) S-SO 0.00 h 0.0 UV-I 0 W/m 11.4 C 14.9 C 3.9 km/h (1 Bft)
22.08.2006 03:00 15.1 C 80 % 1018.4 hPa 0.0 l/m 2.9 km/h (1 Bft) S-SO 0.00 h 0.0 UV-I 0 W/m 11.7 C 15.1 C 5.4 km/h (1 Bft)
22.08.2006 04:00 13.9 C 92 % 1018.5 hPa 1.6 l/m 1.9 km/h (1 Bft) N-NW 0.00 h 0.0 UV-I 0 W/m 12.7 C 13.9 C 3.5 km/h (1 Bft)
22.08.2006 05:00 13.7 C 95 % 1018.5 hPa 0.2 l/m 4.0 km/h (1 Bft) O-SO 0.00 h 0.0 UV-I 0 W/m 12.9 C 13.7 C 5.9 km/h (2 Bft)
22.08.2006 06:00 13.8 C 95 % 1018.6 hPa 0.2 l/m 3.5 km/h (1 Bft) S-SO 0.00 h 0.0 UV-I 5 W/m 13.1 C 13.8 C 5.8 km/h (2 Bft)
22.08.2006 07:00 14.2 C 95 % 1018.8 hPa 1.0 l/m 1.6 km/h (1 Bft) S-SO 0.00 h 0.0 UV-I 11 W/m 13.4 C 14.2 C 3.5 km/h (1 Bft)
22.08.2006 08:00 14.3 C 96 % 1019.0 hPa 1.0 l/m 1.3 km/h (1 Bft) S-SO 0.00 h 0.0 UV-I 36 W/m 13.7 C 14.3 C 2.7 km/h (1 Bft)
22.08.2006 09:00 14.7 C 97 % 1019.2 hPa 1.2 l/m 1.9 km/h (1 Bft) SO 0.00 h 0.7 UV-I 71 W/m 14.3 C 14.7 C 3.5 km/h (1 Bft)
22.08.2006 10:00 15.1 C 97 % 1019.5 hPa 0.2 l/m 9.4 km/h (2 Bft) W 0.00 h 1.8 UV-I 198 W/m 14.6 C 15.1 C 15.3 km/h (3 Bft)
22.08.2006 11:00 15.6 C 92 % 1019.8 hPa 0.0 l/m 11.5 km/h (2 Bft) W-NW 0.00 h 2.9 UV-I 224 W/m 14.3 C 15.6 C 18.4 km/h (3 Bft)
22.08.2006 12:00 16.8 C 84 % 1019.8 hPa 0.0 l/m 12.0 km/h (2 Bft) W 0.07 h 3.9 UV-I 332 W/m 14.0 C 16.8 C 19.3 km/h (3 Bft)
22.08.2006 13:00 18.7 C 74 % 1019.4 hPa 0.0 l/m 11.6 km/h (2 Bft) W-NW 0.62 h 6.3 UV-I 641 W/m 14.0 C 18.7 C 18.4 km/h (3 Bft)
22.08.2006 14:00 20.2 C 66 % 1019.1 hPa 0.0 l/m 11.6 km/h (2 Bft) W 1.00 h 6.3 UV-I 757 W/m 13.7 C 20.2 C 18.5 km/h (3 Bft)
22.08.2006 15:00 20.8 C 63 % 1018.9 hPa 0.0 l/m 11.6 km/h (2 Bft) W-NW 0.83 h 4.7 UV-I 591 W/m 13.4 C 20.8 C 18.1 km/h (3 Bft)
22.08.2006 16:00 20.6 C 62 % 1018.7 hPa 0.0 l/m 10.0 km/h (2 Bft) W 0.77 h 3.3 UV-I 458 W/m 13.0 C 20.6 C 15.6 km/h (3 Bft)
22.08.2006 17:00 21.4 C 56 % 1018.6 hPa 0.0 l/m 10.7 km/h (2 Bft) W-NW 0.97 h 2.0 UV-I 413 W/m 12.4 C 21.4 C 15.9 km/h (3 Bft)
22.08.2006 18:00 21.5 C 57 % 1018.5 hPa 0.0 l/m 8.0 km/h (2 Bft) W-NW 0.85 h 0.9 UV-I 230 W/m 12.5 C 21.5 C 12.2 km/h (2 Bft)
22.08.2006 19:00 20.4 C 60 % 1018.5 hPa 0.0 l/m 7.9 km/h (2 Bft) W-NW 0.60 h 0.5 UV-I 85 W/m 12.3 C 20.4 C 11.9 km/h (2 Bft)
22.08.2006 20:00 17.9 C 71 % 1018.8 hPa 0.0 l/m 1.9 km/h (1 Bft) SW 0.02 h 0.0 UV-I 10 W/m 12.6 C 17.9 C 3.4 km/h (1 Bft)
22.08.2006 21:00 16.5 C 80 % 1019.4 hPa 0.0 l/m 2.1 km/h (1 Bft) O-SO 0.00 h 0.0 UV-I 0 W/m 13.1 C 16.5 C 3.3 km/h (1 Bft)
22.08.2006 22:00 16.1 C 84 % 1019.4 hPa 0.0 l/m 0.2 km/h (0 Bft) SO 0.00 h 0.0 UV-I 0 W/m 13.4 C 16.1 C 0.7 km/h (0 Bft)
22.08.2006 23:00 15.6 C 88 % 1019.2 hPa 0.0 l/m 0.1 km/h (0 Bft) O-SO 0.00 h 0.0 UV-I 0 W/m 13.6 C 15.6 C 0.3 km/h (0 Bft)
23.08.2006 00:00 15.1 C 89 % 1019.1 hPa 0.0 l/m 0.0 km/h (0 Bft) O-SO 0.00 h 0.0 UV-I 0 W/m 13.3 C 15.1 C 0.2 km/h (0 Bft)
23.08.2006 01:00 14.6 C 91 % 1018.7 hPa 0.0 l/m 0.1 km/h (0 Bft) O-SO 0.00 h 0.0 UV-I 0 W/m 13.2 C 14.6 C 0.4 km/h (0 Bft)
23.08.2006 02:00 14.0 C 93 % 1018.5 hPa 0.0 l/m 0.4 km/h (0 Bft) O-SO 0.00 h 0.0 UV-I 0 W/m 13.0 C 14.0 C 1.0 km/h (0 Bft)
23.08.2006 03:00 13.6 C 95 % 1018.1 hPa 0.0 l/m 0.2 km/h (0 Bft) O-SO 0.00 h 0.0 UV-I 0 W/m 12.9 C 13.6 C 0.7 km/h (0 Bft)
23.08.2006 04:00 13.2 C 95 % 1017.7 hPa 0.0 l/m 0.1 km/h (0 Bft) O-SO 0.00 h 0.0 UV-I 0 W/m 12.4 C 13.2 C 0.5 km/h (0 Bft)
23.08.2006 05:00 12.7 C 95 % 1017.4 hPa 0.0 l/m 0.1 km/h (0 Bft) O-SO 0.00 h 0.0 UV-I 0 W/m 11.9 C 12.7 C 0.3 km/h (0 Bft)
23.08.2006 06:00 11.7 C 97 % 1017.4 hPa 0.0 l/m 0.1 km/h (0 Bft) O-SO 0.00 h 0.0 UV-I 9 W/m 11.2 C 11.7 C 0.6 km/h (0 Bft)
23.08.2006 07:00 11.7 C 97 % 1017.5 hPa 0.0 l/m 0.1 km/h (0 Bft) O-SO 0.00 h 0.0 UV-I 29 W/m 11.2 C 11.7 C 0.4 km/h (0 Bft)
23.08.2006 08:00 13.7 C 90 % 1017.6 hPa 0.0 l/m 0.8 km/h (0 Bft) N-NW 0.97 h 0.9 UV-I 246 W/m 12.1 C 13.7 C 2.1 km/h (1 Bft)
23.08.2006 09:00 15.6 C 82 % 1017.3 hPa 0.0 l/m 0.9 km/h (0 Bft) W-NW 0.78 h 1.7 UV-I 320 W/m 12.4 C 15.6 C 2.3 km/h (1 Bft)
23.08.2006 10:00 18.1 C 72 % 1017.1 hPa 0.0 l/m 4.4 km/h (1 Bft) O-SO 0.98 h 3.4 UV-I 540 W/m 12.9 C 18.1 C 7.4 km/h (2 Bft)
23.08.2006 11:00 19.7 C 64 % 1016.7 hPa 0.0 l/m 6.8 km/h (2 Bft) O-SO 1.00 h 5.2 UV-I 654 W/m 12.8 C 19.7 C 10.8 km/h (2 Bft)
23.08.2006 12:00 20.9 C 61 % 1016.1 hPa 0.0 l/m 4.5 km/h (1 Bft) SO 1.00 h 6.3 UV-I 734 W/m 13.1 C 20.9 C 7.4 km/h (2 Bft)
23.08.2006 13:00 22.1 C 57 % 1015.5 hPa 0.0 l/m 3.2 km/h (1 Bft) W-NW 1.00 h 6.6 UV-I 784 W/m 13.0 C 22.1 C 5.5 km/h (1 Bft)
23.08.2006 14:00 23.1 C 53 % 1014.9 hPa 0.0 l/m 3.7 km/h (1 Bft) W-NW 1.00 h 6.2 UV-I 792 W/m 13.0 C 23.1 C 5.9 km/h (2 Bft)
23.08.2006 15:00 23.4 C 51 % 1014.5 hPa 0.0 l/m 2.8 km/h (1 Bft) N 1.00 h 4.8 UV-I 695 W/m 12.7 C 23.4 C 5.3 km/h (1 Bft)
23.08.2006 16:00 24.2 C 48 % 1014.0 hPa 0.0 l/m 2.9 km/h (1 Bft) N 1.00 h 3.3 UV-I 553 W/m 12.4 C 24.2 C 5.2 km/h (1 Bft)
23.08.2006 17:00 24.2 C 46 % 1013.7 hPa 0.0 l/m 2.9 km/h (1 Bft) N-NW 1.00 h 1.8 UV-I 405 W/m 11.7 C 24.2 C 4.6 km/h (1 Bft)
23.08.2006 18:00 23.7 C 49 % 1013.5 hPa 0.0 l/m 1.2 km/h (1 Bft) N-NW 0.98 h 0.8 UV-I 236 W/m 12.4 C 23.7 C 2.6 km/h (1 Bft)
23.08.2006 19:00 22.1 C 55 % 1013.2 hPa 0.0 l/m 1.0 km/h (0 Bft) NO 0.65 h 0.0 UV-I 86 W/m 12.4 C 22.1 C 2.2 km/h (1 Bft)
23.08.2006 20:00 19.1 C 72 % 1013.3 hPa 0.0 l/m 1.6 km/h (1 Bft) O-SO 0.00 h 0.0 UV-I 11 W/m 13.9 C 19.1 C 2.6 km/h (1 Bft)
23.08.2006 21:00 16.6 C 83 % 1013.6 hPa 0.0 l/m 3.0 km/h (1 Bft) O-SO 0.00 h 0.0 UV-I 0 W/m 13.7 C 16.6 C 4.1 km/h (1 Bft)
23.08.2006 22:00 15.5 C 86 % 1013.5 hPa 0.0 l/m 2.2 km/h (1 Bft) O-SO 0.00 h 0.0 UV-I 0 W/m 13.1 C 15.5 C 3.3 km/h (1 Bft)
23.08.2006 23:00 14.9 C 88 % 1013.6 hPa 0.0 l/m 0.5 km/h (0 Bft) O 0.00 h 0.0 UV-I 0 W/m 13.0 C 14.9 C 1.2 km/h (1 Bft)
24.08.2006 00:00 14.2 C 91 % 1013.3 hPa 0.0 l/m 1.2 km/h (1 Bft) O 0.00 h 0.0 UV-I 0 W/m 12.7 C 14.2 C 1.9 km/h (1 Bft)
24.08.2006 01:00 13.5 C 93 % 1012.9 hPa 0.0 l/m 1.1 km/h (0 Bft) O 0.00 h 0.0 UV-I 0 W/m 12.4 C 13.5 C 2.1 km/h (1 Bft)
24.08.2006 02:00 12.9 C 95 % 1012.3 hPa 0.0 l/m 1.4 km/h (1 Bft) O 0.00 h 0.0 UV-I 0 W/m 12.1 C 12.9 C 2.0 km/h (1 Bft)
24.08.2006 03:00 12.7 C 96 % 1012.0 hPa 0.0 l/m 0.8 km/h (0 Bft) O-SO 0.00 h 0.0 UV-I 0 W/m 12.0 C 12.7 C 1.4 km/h (1 Bft)
24.08.2006 04:00 12.6 C 96 % 1011.9 hPa 0.0 l/m 0.9 km/h (0 Bft) O-SO 0.00 h 0.0 UV-I 0 W/m 11.9 C 12.6 C 1.5 km/h (1 Bft)
24.08.2006 05:00 12.2 C 96 % 1012.0 hPa 0.0 l/m 0.9 km/h (0 Bft) O-SO 0.00 h 0.0 UV-I 0 W/m 11.7 C 12.2 C 2.0 km/h (1 Bft)
24.08.2006 06:00 12.3 C 96 % 1011.7 hPa 0.0 l/m 0.9 km/h (0 Bft) O-SO 0.00 h 0.0 UV-I 11 W/m 11.6 C 12.3 C 1.7 km/h (1 Bft)
24.08.2006 07:00 12.5 C 97 % 1011.6 hPa 0.0 l/m 1.1 km/h (1 Bft) O-SO 0.00 h 0.0 UV-I 45 W/m 12.0 C 12.5 C 2.0 km/h (1 Bft)
24.08.2006 08:00 13.5 C 94 % 1011.8 hPa 0.0 l/m 0.2 km/h (0 Bft) O-SO 0.07 h 0.7 UV-I 82 W/m 12.6 C 13.5 C 0.7 km/h (0 Bft)
24.08.2006 09:00 15.3 C 89 % 1011.4 hPa 0.0 l/m 1.0 km/h (0 Bft) SO 0.70 h 1.6 UV-I 321 W/m 13.5 C 15.3 C 2.2 km/h (1 Bft)
24.08.2006 10:00 17.2 C 84 % 1011.3 hPa 0.0 l/m 3.4 km/h (1 Bft) O-SO 0.33 h 2.5 UV-I 318 W/m 14.5 C 17.2 C 6.3 km/h (2 Bft)
24.08.2006 11:00 18.2 C 82 % 1011.2 hPa 5.0 l/m 3.6 km/h (1 Bft) S 0.23 h 2.5 UV-I 195 W/m 14.9 C 18.2 C 6.9 km/h (2 Bft)
24.08.2006 12:00 17.4 C 93 % 1011.5 hPa 0.0 l/m 1.7 km/h (1 Bft) S-SO 0.00 h 2.4 UV-I 237 W/m 16.3 C 17.4 C 3.9 km/h (1 Bft)
24.08.2006 13:00 17.3 C 94 % 1011.3 hPa 0.4 l/m 3.2 km/h (1 Bft) W 0.07 h 2.1 UV-I 201 W/m 16.4 C 17.3 C 5.4 km/h (1 Bft)
24.08.2006 14:00 18.8 C 89 % 1010.9 hPa 0.0 l/m 2.7 km/h (1 Bft) S-SO 0.40 h 3.3 UV-I 431 W/m 16.9 C 18.8 C 5.9 km/h (2 Bft)
24.08.2006 15:00 18.3 C 79 % 1011.1 hPa 0.0 l/m 13.7 km/h (3 Bft) W-NW 0.07 h 2.5 UV-I 199 W/m 14.6 C 18.3 C 20.7 km/h (4 Bft)
24.08.2006 16:00 15.2 C 93 % 1012.7 hPa 2.8 l/m 3.9 km/h (1 Bft) W 0.00 h 0.9 UV-I 50 W/m 14.1 C 15.2 C 7.1 km/h (2 Bft)
24.08.2006 17:00 15.8 C 96 % 1012.4 hPa 0.0 l/m 3.0 km/h (1 Bft) S-SO 0.32 h 0.9 UV-I 181 W/m 15.1 C 15.8 C 6.4 km/h (2 Bft)
24.08.2006 18:00 16.6 C 92 % 1012.3 hPa 0.0 l/m 3.4 km/h (1 Bft) SW 0.50 h 0.8 UV-I 178 W/m 15.4 C 16.6 C 7.1 km/h (2 Bft)
24.08.2006 19:00 16.1 C 90 % 1012.4 hPa 0.0 l/m 2.6 km/h (1 Bft) S-SO 0.03 h 0.0 UV-I 35 W/m 14.5 C 16.1 C 6.6 km/h (2 Bft)
24.08.2006 20:00 15.2 C 92 % 1012.5 hPa 0.0 l/m 1.1 km/h (1 Bft) S-SO 0.00 h 0.0 UV-I 8 W/m 13.9 C 15.2 C 2.9 km/h (1 Bft)
24.08.2006 21:00 14.3 C 94 % 1013.4 hPa 0.0 l/m 2.4 km/h (1 Bft) O-SO 0.00 h 0.0 UV-I 0 W/m 13.4 C 14.3 C 3.9 km/h (1 Bft)
24.08.2006 22:00 13.6 C 95 % 1013.6 hPa 0.0 l/m 1.9 km/h (1 Bft) O-SO 0.00 h 0.0 UV-I 0 W/m 12.8 C 13.6 C 3.6 km/h (1 Bft)
24.08.2006 23:00 12.8 C 89 % 1013.9 hPa 0.0 l/m 3.2 km/h (1 Bft) O-SO 0.00 h 0.0 UV-I 0 W/m 11.1 C 12.8 C 4.9 km/h (1 Bft)
25.08.2006 00:00 12.1 C 90 % 1013.9 hPa 0.0 l/m 4.7 km/h (1 Bft) O-SO 0.00 h 0.0 UV-I 0 W/m 10.5 C 12.1 C 5.8 km/h (2 Bft)
25.08.2006 01:00 11.0 C 94 % 1013.7 hPa 0.0 l/m 4.5 km/h (1 Bft) O-SO 0.00 h 0.0 UV-I 0 W/m 10.1 C 11.0 C 6.3 km/h (2 Bft)
25.08.2006 02:00 10.9 C 95 % 1013.3 hPa 0.0 l/m 2.6 km/h (1 Bft) O-SO 0.00 h 0.0 UV-I 0 W/m 10.1 C 10.9 C 4.1 km/h (1 Bft)
25.08.2006 03:00 11.1 C 96 % 1012.8 hPa 0.0 l/m 1.6 km/h (1 Bft) O-SO 0.00 h 0.0 UV-I 0 W/m 10.4 C 11.1 C 2.9 km/h (1 Bft)
25.08.2006 04:00 11.6 C 95 % 1012.4 hPa 0.0 l/m 0.7 km/h (0 Bft) O-SO 0.00 h 0.0 UV-I 0 W/m 10.8 C 11.6 C 1.6 km/h (1 Bft)
25.08.2006 05:00 11.7 C 94 % 1012.2 hPa 0.0 l/m 0.6 km/h (0 Bft) O-SO 0.00 h 0.0 UV-I 0 W/m 10.7 C 11.7 C 1.6 km/h (1 Bft)
25.08.2006 06:00 11.8 C 91 % 1012.1 hPa 0.0 l/m 0.5 km/h (0 Bft) SO 0.00 h 0.0 UV-I 10 W/m 10.4 C 11.8 C 2.3 km/h (1 Bft)
25.08.2006 07:00 12.1 C 90 % 1012.1 hPa 0.0 l/m 1.4 km/h (1 Bft) S-SO 0.00 h 0.5 UV-I 50 W/m 10.5 C 12.1 C 3.4 km/h (1 Bft)
25.08.2006 08:00 13.2 C 87 % 1011.8 hPa 0.0 l/m 1.3 km/h (1 Bft) S-SO 0.00 h 0.7 UV-I 115 W/m 11.2 C 13.2 C 3.5 km/h (1 Bft)
25.08.2006 09:00 14.6 C 80 % 1011.9 hPa 0.0 l/m 2.6 km/h (1 Bft) S-SO 0.47 h 1.6 UV-I 262 W/m 11.2 C 14.6 C 5.5 km/h (1 Bft)
25.08.2006 10:00 16.8 C 67 % 1011.5 hPa 0.0 l/m 10.0 km/h (2 Bft) W-NW 1.00 h 3.4 UV-I 552 W/m 10.6 C 16.8 C 15.5 km/h (3 Bft)
25.08.2006 11:00 17.9 C 60 % 1011.3 hPa 0.0 l/m 10.8 km/h (2 Bft) W-NW 0.97 h 4.9 UV-I 638 W/m 9.9 C 17.9 C 16.7 km/h (3 Bft)
25.08.2006 12:00 18.7 C 52 % 1011.1 hPa 0.0 l/m 15.2 km/h (3 Bft) W-NW 1.00 h 6.2 UV-I 738 W/m 8.8 C 18.7 C 22.6 km/h (4 Bft)
25.08.2006 13:00 19.7 C 52 % 1010.8 hPa 0.0 l/m 13.2 km/h (3 Bft) W-NW 0.97 h 6.3 UV-I 748 W/m 9.4 C 19.7 C 19.8 km/h (4 Bft)
25.08.2006 14:00 19.8 C 52 % 1010.6 hPa 0.0 l/m 10.8 km/h (2 Bft) W 0.60 h 4.8 UV-I 555 W/m 9.7 C 19.8 C 17.0 km/h (3 Bft)
25.08.2006 15:00 19.7 C 53 % 1010.2 hPa 0.0 l/m 9.5 km/h (2 Bft) W-NW 0.50 h 3.6 UV-I 484 W/m 9.8 C 19.7 C 14.5 km/h (3 Bft)
25.08.2006 16:00 21.1 C 49 % 1009.7 hPa 0.0 l/m 9.7 km/h (2 Bft) W-NW 1.00 h 3.2 UV-I 543 W/m 10.0 C 21.1 C 15.2 km/h (3 Bft)
25.08.2006 17:00 21.2 C 48 % 1009.6 hPa 0.0 l/m 8.7 km/h (2 Bft) W-NW 1.00 h 1.8 UV-I 396 W/m 9.8 C 21.2 C 13.6 km/h (3 Bft)
25.08.2006 18:00 20.4 C 51 % 1009.7 hPa 0.0 l/m 8.6 km/h (2 Bft) W-NW 1.00 h 0.9 UV-I 229 W/m 9.9 C 20.4 C 12.6 km/h (3 Bft)
25.08.2006 19:00 19.0 C 55 % 1010.1 hPa 0.0 l/m 7.3 km/h (2 Bft) W-NW 0.65 h 0.5 UV-I 78 W/m 9.6 C 19.0 C 10.8 km/h (2 Bft)
25.08.2006 20:00 16.1 C 69 % 1010.6 hPa 0.0 l/m 3.7 km/h (1 Bft) O-SO 0.03 h 0.0 UV-I 10 W/m 10.4 C 16.1 C 5.8 km/h (2 Bft)
25.08.2006 21:00 14.4 C 76 % 1011.3 hPa 0.0 l/m 2.1 km/h (1 Bft) O 0.00 h 0.0 UV-I 0 W/m 10.2 C 14.4 C 3.7 km/h (1 Bft)
25.08.2006 22:00 12.7 C 85 % 1011.5 hPa 0.0 l/m 2.8 km/h (1 Bft) O-SO 0.00 h 0.0 UV-I 0 W/m 10.3 C 12.7 C 4.2 km/h (1 Bft)
25.08.2006 23:00 12.2 C 88 % 1011.8 hPa 0.0 l/m 3.2 km/h (1 Bft) O-SO 0.00 h 0.0 UV-I 0 W/m 10.2 C 12.2 C 4.5 km/h (1 Bft)
26.08.2006 00:00 11.9 C 89 % 1012.0 hPa 0.0 l/m 0.3 km/h (0 Bft) O-SO 0.00 h 0.0 UV-I 0 W/m 10.1 C 11.9 C 0.6 km/h (0 Bft)
26.08.2006 01:00 11.1 C 93 % 1011.9 hPa 0.0 l/m 1.2 km/h (1 Bft) O-SO 0.00 h 0.0 UV-I 0 W/m 10.0 C 11.1 C 2.2 km/h (1 Bft)
26.08.2006 02:00 10.6 C 94 % 1012.0 hPa 0.0 l/m 0.1 km/h (0 Bft) O-SO 0.00 h 0.0 UV-I 0 W/m 9.6 C 10.6 C 0.4 km/h (0 Bft)
26.08.2006 03:00 9.5 C 96 % 1012.1 hPa 0.0 l/m 0.3 km/h (0 Bft) O-SO 0.00 h 0.0 UV-I 0 W/m 9.0 C 9.5 C 0.8 km/h (0 Bft)
26.08.2006 04:00 9.1 C 97 % 1012.0 hPa 0.0 l/m 0.2 km/h (0 Bft) O-SO 0.00 h 0.0 UV-I 0 W/m 8.6 C 9.1 C 0.5 km/h (0 Bft)
26.08.2006 05:00 8.7 C 97 % 1012.1 hPa 0.0 l/m 0.1 km/h (0 Bft) O-SO 0.00 h 0.0 UV-I 0 W/m 8.2 C 8.7 C 0.5 km/h (0 Bft)
26.08.2006 06:00 8.2 C 98 % 1012.3 hPa 0.0 l/m 0.4 km/h (0 Bft) O-SO 0.07 h 0.0 UV-I 12 W/m 7.9 C 8.2 C 1.1 km/h (0 Bft)
26.08.2006 07:00 8.6 C 97 % 1012.8 hPa 0.0 l/m 0.1 km/h (0 Bft) O-SO 0.00 h 0.5 UV-I 45 W/m 8.3 C 8.6 C 0.6 km/h (0 Bft)
26.08.2006 08:00 10.4 C 94 % 1012.8 hPa 0.0 l/m 0.0 km/h (0 Bft) O-SO 0.78 h 0.9 UV-I 219 W/m 9.5 C 10.4 C 0.4 km/h (0 Bft)
26.08.2006 09:00 13.1 C 86 % 1012.3 hPa 0.0 l/m 1.4 km/h (1 Bft) O-SO 0.68 h 1.8 UV-I 335 W/m 10.8 C 13.1 C 3.2 km/h (1 Bft)
26.08.2006 10:00 16.4 C 76 % 1012.0 hPa 0.0 l/m 2.7 km/h (1 Bft) S-SO 1.00 h 3.2 UV-I 541 W/m 12.2 C 16.4 C 5.4 km/h (1 Bft)
26.08.2006 11:00 18.7 C 66 % 1011.6 hPa 0.0 l/m 3.6 km/h (1 Bft) SO 1.00 h 4.8 UV-I 670 W/m 12.2 C 18.7 C 6.4 km/h (2 Bft)
26.08.2006 12:00 19.6 C 59 % 1011.0 hPa 0.0 l/m 4.0 km/h (1 Bft) W-NW 0.53 h 3.8 UV-I 539 W/m 11.3 C 19.6 C 6.9 km/h (2 Bft)
26.08.2006 13:00 19.9 C 57 % 1010.7 hPa 0.0 l/m 4.3 km/h (1 Bft) W-NW 0.77 h 4.7 UV-I 548 W/m 11.1 C 19.9 C 6.5 km/h (2 Bft)
26.08.2006 14:00 21.5 C 50 % 1010.2 hPa 0.0 l/m 5.5 km/h (1 Bft) W-NW 0.88 h 5.5 UV-I 742 W/m 10.8 C 21.5 C 8.7 km/h (2 Bft)
26.08.2006 15:00 20.1 C 53 % 1010.3 hPa 0.0 l/m 5.1 km/h (1 Bft) W-NW 0.00 h 1.8 UV-I 147 W/m 10.2 C 20.1 C 7.8 km/h (2 Bft)
26.08.2006 16:00 16.5 C 81 % 1011.2 hPa 0.8 l/m 8.6 km/h (2 Bft) W-NW 0.00 h 0.9 UV-I 72 W/m 13.1 C 16.5 C 13.6 km/h (3 Bft)
26.08.2006 17:00 15.0 C 96 % 1012.2 hPa 2.6 l/m 1.4 km/h (1 Bft) W-NW 0.00 h 0.6 UV-I 77 W/m 14.3 C 15.0 C 2.9 km/h (1 Bft)
26.08.2006 18:00 15.3 C 95 % 1012.2 hPa 0.0 l/m 1.2 km/h (1 Bft) O-SO 0.07 h 0.6 UV-I 84 W/m 14.5 C 15.3 C 2.7 km/h (1 Bft)
26.08.2006 19:00 15.1 C 95 % 1012.1 hPa 0.0 l/m 1.7 km/h (1 Bft) S-SO 0.00 h 0.0 UV-I 22 W/m 14.3 C 15.1 C 3.7 km/h (1 Bft)
26.08.2006 20:00 14.8 C 95 % 1012.2 hPa 0.0 l/m 1.1 km/h (1 Bft) S-SO 0.00 h 0.0 UV-I 8 W/m 14.1 C 14.8 C 3.1 km/h (1 Bft)
26.08.2006 21:00 14.7 C 97 % 1012.5 hPa 2.2 l/m 2.7 km/h (1 Bft) S-SO 0.00 h 0.0 UV-I 0 W/m 14.2 C 14.7 C 5.4 km/h (1 Bft)
26.08.2006 22:00 14.5 C 98 % 1012.5 hPa 1.0 l/m 3.0 km/h (1 Bft) S-SO 0.00 h 0.0 UV-I 0 W/m 14.2 C 14.5 C 6.1 km/h (2 Bft)
26.08.2006 23:00 14.4 C 99 % 1012.4 hPa 2.8 l/m 1.6 km/h (1 Bft) W 0.00 h 0.0 UV-I 0 W/m 14.2 C 14.4 C 3.6 km/h (1 Bft)
27.08.2006 00:00 13.7 C 99 % 1012.8 hPa 4.6 l/m 2.5 km/h (1 Bft) W-NW 0.00 h 0.0 UV-I 0 W/m 13.5 C 13.7 C 4.3 km/h (1 Bft)
27.08.2006 01:00 13.4 C 98 % 1012.7 hPa 1.6 l/m 0.7 km/h (0 Bft) W-NW 0.00 h 0.0 UV-I 0 W/m 13.1 C 13.4 C 1.9 km/h (1 Bft)
27.08.2006 02:00 13.7 C 99 % 1012.6 hPa 0.0 l/m 1.0 km/h (0 Bft) S-SW 0.00 h 0.0 UV-I 0 W/m 13.5 C 13.7 C 2.8 km/h (1 Bft)
27.08.2006 03:00 13.8 C 97 % 1012.8 hPa 0.4 l/m 2.9 km/h (1 Bft) S-SO 0.00 h 0.0 UV-I 0 W/m 13.4 C 13.8 C 5.3 km/h (1 Bft)
27.08.2006 04:00 13.8 C 98 % 1013.1 hPa 0.0 l/m 1.5 km/h (1 Bft) S-SO 0.00 h 0.0 UV-I 0 W/m 13.4 C 13.8 C 3.5 km/h (1 Bft)
27.08.2006 05:00 13.7 C 97 % 1013.2 hPa 0.0 l/m 1.8 km/h (1 Bft) W-SW 0.00 h 0.0 UV-I 0 W/m 13.3 C 13.7 C 3.9 km/h (1 Bft)
27.08.2006 06:00 13.7 C 98 % 1013.6 hPa 0.0 l/m 1.3 km/h (1 Bft) W-SW 0.00 h 0.0 UV-I 5 W/m 13.3 C 13.7 C 3.3 km/h (1 Bft)
27.08.2006 07:00 13.9 C 98 % 1014.0 hPa 0.0 l/m 1.0 km/h (0 Bft) S 0.00 h 0.0 UV-I 22 W/m 13.5 C 13.9 C 2.9 km/h (1 Bft)
27.08.2006 08:00 14.3 C 96 % 1014.3 hPa 0.0 l/m 1.6 km/h (1 Bft) S-SO 0.00 h 0.5 UV-I 43 W/m 13.7 C 14.3 C 3.8 km/h (1 Bft)
27.08.2006 09:00 14.7 C 97 % 1014.6 hPa 0.6 l/m 0.6 km/h (0 Bft) S 0.00 h 0.5 UV-I 51 W/m 14.3 C 14.7 C 2.3 km/h (1 Bft)
27.08.2006 10:00 14.5 C 98 % 1015.1 hPa 2.4 l/m 1.3 km/h (1 Bft) S-SO 0.00 h 0.7 UV-I 48 W/m 14.2 C 14.5 C 3.3 km/h (1 Bft)
27.08.2006 11:00 14.4 C 98 % 1015.1 hPa 4.8 l/m 6.6 km/h (2 Bft) W-NW 0.00 h 1.0 UV-I 60 W/m 14.1 C 14.4 C 10.1 km/h (2 Bft)
27.08.2006 12:00 14.6 C 98 % 1015.6 hPa 2.0 l/m 10.4 km/h (2 Bft) W-NW 0.00 h 1.6 UV-I 150 W/m 14.4 C 14.6 C 16.8 km/h (3 Bft)
27.08.2006 13:00 15.1 C 98 % 1015.7 hPa 0.8 l/m 5.7 km/h (1 Bft) W 0.00 h 1.6 UV-I 153 W/m 14.8 C 15.1 C 9.4 km/h (2 Bft)
27.08.2006 14:00 15.5 C 97 % 1015.7 hPa 2.0 l/m 5.7 km/h (1 Bft) W-NW 0.13 h 2.1 UV-I 187 W/m 15.0 C 15.5 C 9.0 km/h (2 Bft)
27.08.2006 15:00 16.5 C 91 % 1015.7 hPa 0.0 l/m 10.9 km/h (2 Bft) W 0.12 h 2.8 UV-I 291 W/m 15.0 C 16.5 C 16.3 km/h (3 Bft)
27.08.2006 16:00 19.2 C 76 % 1015.5 hPa 0.0 l/m 12.9 km/h (3 Bft) W 1.33 h 3.2 UV-I 609 W/m 14.8 C 19.2 C 20.2 km/h (4 Bft)
27.08.2006 17:00 19.6 C 71 % 1015.6 hPa 0.0 l/m 12.6 km/h (3 Bft) W-NW 0.92 h 1.9 UV-I 502 W/m 14.2 C 19.6 C 19.1 km/h (3 Bft)
27.08.2006 18:00 19.1 C 71 % 1016.0 hPa 0.0 l/m 11.2 km/h (2 Bft) W 0.67 h 0.7 UV-I 226 W/m 13.7 C 19.1 C 17.4 km/h (3 Bft)
27.08.2006 19:00 18.2 C 73 % 1016.3 hPa 0.0 l/m 7.4 km/h (2 Bft) W 0.75 h 0.5 UV-I 105 W/m 13.4 C 18.2 C 12.3 km/h (3 Bft)
27.08.2006 20:00 15.8 C 83 % 1016.9 hPa 0.0 l/m 3.4 km/h (1 Bft) W-SW 0.00 h 0.0 UV-I 8 W/m 12.9 C 15.8 C 6.6 km/h (2 Bft)
27.08.2006 21:00 15.0 C 87 % 1017.7 hPa 0.0 l/m 2.3 km/h (1 Bft) S-SO 0.00 h 0.0 UV-I 0 W/m 12.8 C 15.0 C 4.6 km/h (1 Bft)
27.08.2006 22:00 14.5 C 89 % 1017.9 hPa 0.0 l/m 1.1 km/h (1 Bft) S-SO 0.00 h 0.0 UV-I 0 W/m 12.8 C 14.5 C 2.8 km/h (1 Bft)
27.08.2006 23:00 14.2 C 91 % 1017.7 hPa 0.0 l/m 4.2 km/h (1 Bft) O-SO 0.00 h 0.0 UV-I 0 W/m 12.7 C 14.2 C 6.5 km/h (2 Bft)
Min-Datum _ 26.08.06 23.08.06 25.08.06 - 21.08.06 - - - - 25.08.06 26.08.06 21.08.06
_ Min-Zeit 06:06 17:00 17:15 - 00:06 - - - - 13:22 06:06 00:06
Minimum _ 8.2 C 42 % 1009.5 hPa - 0.0 km/h (0 Bft) - - - - 7.7 C 8.2 C 0.0 km/h (0 Bft)
Max-Datum _ 23.08.06 26.08.06 21.08.06 24.08.06 24.08.06 - 27.08.06 22.08.06 22.08.06 24.08.06 23.08.06 24.08.06
_ Max-Zeit 16:41 22:03 00:00 11:47 15:38 - 16:01 13:40 14:00 14:37 16:41 15:49
Maximum _ 25.0 C 99 % 1023.1 hPa 5.0 l/m 29.6 km/h
W-NW (5 Bft)
- 0.52 h 8.4 UV-I 1137 W/m 18.0 C 25.0 C 45.1 km/h
W-NW (6 Bft)
Durchschnitt _ 15.9 C 82 % 1015.3 hPa #42.6 l/m 4.1 km/h (1 Bft) W-NW #43:56 h 2.6 UV-I 276 W/m 12.5 C 15.9 C 6.7 km/h (2 Bft)
© Kaiko 2006